sensor_id;sensor_type;location;lat;lon;timestamp;pressure;altitude;pressure_sealevel;temperature;humidity
30343;BME280;17145;49.902;8.680;'2023-01-26 00:58:20';100810;;;1;52
30343;BME280;17145;49.902;8.680;'2023-01-26 01:00:47';100810;;;1;52
30343;BME280;17145;49.902;8.680;'2023-01-26 01:03:15';100810;;;1;52
30343;BME280;17145;49.902;8.680;'2023-01-26 01:05:43';100810;;;1;52
30343;BME280;17145;49.902;8.680;'2023-01-26 01:08:10';100800;;;1;52
30343;BME280;17145;49.902;8.680;'2023-01-26 01:10:40';100800;;;1;52
30343;BME280;17145;49.902;8.680;'2023-01-26 01:13:09';100790;;;1;53
30343;BME280;17145;49.902;8.680;'2023-01-26 01:15:37';100790;;;1;53
30343;BME280;17145;49.902;8.680;'2023-01-26 01:18:04';100780;;;1;52
30343;BME280;17145;49.902;8.680;'2023-01-26 01:20:32';100780;;;1;52
30343;BME280;17145;49.902;8.680;'2023-01-26 01:22:59';100780;;;1;52
30343;BME280;17145;49.902;8.680;'2023-01-26 01:25:27';100780;;;1;53
30343;BME280;17145;49.902;8.680;'2023-01-26 01:27:56';100770;;;1;53
30343;BME280;17145;49.902;8.680;'2023-01-26 01:30:23';100770;;;1;52
30343;BME280;17145;49.902;8.680;'2023-01-26 01:32:50';100770;;;1;52
30343;BME280;17145;49.902;8.680;'2023-01-26 01:35:18';100770;;;1;52
30343;BME280;17145;49.902;8.680;'2023-01-26 01:37:45';100760;;;1;53
30343;BME280;17145;49.902;8.680;'2023-01-26 01:40:13';100760;;;1;52
30343;BME280;17145;49.902;8.680;'2023-01-26 01:42:41';100760;;;1;52
30343;BME280;17145;49.902;8.680;'2023-01-26 01:45:09';100760;;;1;52
30343;BME280;17145;49.902;8.680;'2023-01-26 01:47:36';100760;;;1;53
30343;BME280;17145;49.902;8.680;'2023-01-26 01:50:04';100760;;;0;52
30343;BME280;17145;49.902;8.680;'2023-01-26 01:52:32';100760;;;1;52
30343;BME280;17145;49.902;8.680;'2023-01-26 01:55:00';100760;;;1;52
30343;BME280;17145;49.902;8.680;'2023-01-26 01:57:27';100770;;;1;52
30343;BME280;17145;49.902;8.680;'2023-01-26 01:59:54';100770;;;0;52
30343;BME280;17145;49.902;8.680;'2023-01-26 02:02:22';100770;;;1;53
30343;BME280;17145;49.902;8.680;'2023-01-26 02:04:50';100770;;;1;52
30343;BME280;17145;49.902;8.680;'2023-01-26 02:07:18';100770;;;1;52
30343;BME280;17145;49.902;8.680;'2023-01-26 02:09:46';100770;;;1;52
30343;BME280;17145;49.902;8.680;'2023-01-26 02:12:13';100770;;;1;52
30343;BME280;17145;49.902;8.680;'2023-01-26 02:14:41';100770;;;1;52
30343;BME280;17145;49.902;8.680;'2023-01-26 02:17:08';100770;;;1;52
30343;BME280;17145;49.902;8.680;'2023-01-26 02:19:36';100770;;;1;52
30343;BME280;17145;49.902;8.680;'2023-01-26 02:22:03';100760;;;1;52
30343;BME280;17145;49.902;8.680;'2023-01-26 02:24:31';100760;;;1;52
30343;BME280;17145;49.902;8.680;'2023-01-26 02:26:59';100760;;;1;52
30343;BME280;17145;49.902;8.680;'2023-01-26 02:29:27';100760;;;1;52
30343;BME280;17145;49.902;8.680;'2023-01-26 02:31:54';100760;;;1;52
30343;BME280;17145;49.902;8.680;'2023-01-26 02:34:21';100770;;;1;52
30343;BME280;17145;49.902;8.680;'2023-01-26 02:36:49';100760;;;1;52
30343;BME280;17145;49.902;8.680;'2023-01-26 02:39:16';100760;;;1;52
30343;BME280;17145;49.902;8.680;'2023-01-26 02:41:43';100760;;;1;52
30343;BME280;17145;49.902;8.680;'2023-01-26 02:44:15';100760;;;1;52
30343;BME280;17145;49.902;8.680;'2023-01-26 02:46:47';100760;;;1;52
30343;BME280;17145;49.902;8.680;'2023-01-26 02:49:19';100760;;;1;52
30343;BME280;17145;49.902;8.680;'2023-01-26 02:51:53';100760;;;1;52
30343;BME280;17145;49.902;8.680;'2023-01-26 02:54:28';100760;;;1;52
30343;BME280;17145;49.902;8.680;'2023-01-26 02:57:01';100760;;;1;52
30343;BME280;17145;49.902;8.680;'2023-01-26 02:59:31';100760;;;1;52
30343;BME280;17145;49.902;8.680;'2023-01-26 03:01:58';100760;;;1;52
30343;BME280;17145;49.902;8.680;'2023-01-26 03:04:26';100760;;;1;52
30343;BME280;17145;49.902;8.680;'2023-01-26 03:06:57';100760;;;1;52
30343;BME280;17145;49.902;8.680;'2023-01-26 03:09:30';100750;;;1;52
30343;BME280;17145;49.902;8.680;'2023-01-26 03:12:01';100750;;;1;52
30343;BME280;17145;49.902;8.680;'2023-01-26 03:14:31';100740;;;1;52
30343;BME280;17145;49.902;8.680;'2023-01-26 03:16:59';100740;;;1;52
30343;BME280;17145;49.902;8.680;'2023-01-26 03:19:37';100740;;;1;52
30343;BME280;17145;49.902;8.680;'2023-01-26 03:22:13';100740;;;1;52
30343;BME280;17145;49.902;8.680;'2023-01-26 03:24:40';100740;;;1;52
30343;BME280;17145;49.902;8.680;'2023-01-26 03:27:08';100740;;;1;52
30343;BME280;17145;49.902;8.680;'2023-01-26 03:29:36';100730;;;1;52
30343;BME280;17145;49.902;8.680;'2023-01-26 03:32:05';100730;;;1;52
30343;BME280;17145;49.902;8.680;'2023-01-26 03:34:33';100720;;;1;53
30343;BME280;17145;49.902;8.680;'2023-01-26 03:37:01';100720;;;1;53
30343;BME280;17145;49.902;8.680;'2023-01-26 03:39:42';100730;;;1;52
30343;BME280;17145;49.902;8.680;'2023-01-26 03:42:09';100730;;;1;52
30343;BME280;17145;49.902;8.680;'2023-01-26 03:44:39';100720;;;1;53
30343;BME280;17145;49.902;8.680;'2023-01-26 03:47:11';100720;;;1;53
30343;BME280;17145;49.902;8.680;'2023-01-26 03:49:38';100720;;;1;52
30343;BME280;17145;49.902;8.680;'2023-01-26 03:52:07';100720;;;1;53
30343;BME280;17145;49.902;8.680;'2023-01-26 03:54:35';100710;;;1;53
30343;BME280;17145;49.902;8.680;'2023-01-26 03:57:03';100710;;;1;53
30343;BME280;17145;49.902;8.680;'2023-01-26 03:59:31';100710;;;1;53
30343;BME280;17145;49.902;8.680;'2023-01-26 04:01:58';100700;;;1;53
30343;BME280;17145;49.902;8.680;'2023-01-26 04:04:26';100700;;;1;53
30343;BME280;17145;49.902;8.680;'2023-01-26 04:06:53';100690;;;1;54
30343;BME280;17145;49.902;8.680;'2023-01-26 04:09:21';100690;;;1;54
30343;BME280;17145;49.902;8.680;'2023-01-26 04:11:48';100690;;;1;54
30343;BME280;17145;49.902;8.680;'2023-01-26 04:14:16';100690;;;1;54
30343;BME280;17145;49.902;8.680;'2023-01-26 04:16:45';100690;;;1;54
30343;BME280;17145;49.902;8.680;'2023-01-26 04:19:14';100680;;;1;54
30343;BME280;17145;49.902;8.680;'2023-01-26 04:21:42';100680;;;1;54
30343;BME280;17145;49.902;8.680;'2023-01-26 04:24:11';100680;;;1;54
30343;BME280;17145;49.902;8.680;'2023-01-26 04:26:39';100680;;;1;54
30343;BME280;17145;49.902;8.680;'2023-01-26 04:29:07';100680;;;1;54
30343;BME280;17145;49.902;8.680;'2023-01-26 04:31:34';100680;;;1;54
30343;BME280;17145;49.902;8.680;'2023-01-26 04:34:02';100680;;;1;54
30343;BME280;17145;49.902;8.680;'2023-01-26 04:36:29';100670;;;1;54
30343;BME280;17145;49.902;8.680;'2023-01-26 04:38:57';100670;;;1;54
30343;BME280;17145;49.902;8.680;'2023-01-26 04:41:25';100670;;;1;54
30343;BME280;17145;49.902;8.680;'2023-01-26 04:43:52';100670;;;1;54
30343;BME280;17145;49.902;8.680;'2023-01-26 04:46:20';100670;;;0;54
30343;BME280;17145;49.902;8.680;'2023-01-26 04:48:47';100670;;;0;56
30343;BME280;17145;49.902;8.680;'2023-01-26 04:51:14';100660;;;0;55
30343;BME280;17145;49.902;8.680;'2023-01-26 04:53:43';100660;;;0;55
30343;BME280;17145;49.902;8.680;'2023-01-26 04:56:11';100660;;;0;55
30343;BME280;17145;49.902;8.680;'2023-01-26 04:58:38';100660;;;0;55
30343;BME280;17145;49.902;8.680;'2023-01-26 05:01:06';100670;;;1;55
30343;BME280;17145;49.902;8.680;'2023-01-26 05:03:34';100670;;;1;55
30343;BME280;17145;49.902;8.680;'2023-01-26 05:06:02';100660;;;1;55
30343;BME280;17145;49.902;8.680;'2023-01-26 05:08:29';100660;;;0;55
30343;BME280;17145;49.902;8.680;'2023-01-26 05:10:57';100660;;;0;55
30343;BME280;17145;49.902;8.680;'2023-01-26 05:13:24';100660;;;0;55
30343;BME280;17145;49.902;8.680;'2023-01-26 05:15:52';100660;;;0;55
30343;BME280;17145;49.902;8.680;'2023-01-26 05:18:20';100650;;;0;55
30343;BME280;17145;49.902;8.680;'2023-01-26 05:20:47';100650;;;0;55
30343;BME280;17145;49.902;8.680;'2023-01-26 05:23:17';100650;;;0;55
30343;BME280;17145;49.902;8.680;'2023-01-26 05:25:46';100650;;;0;55
30343;BME280;17145;49.902;8.680;'2023-01-26 05:28:14';100650;;;0;55
30343;BME280;17145;49.902;8.680;'2023-01-26 05:30:41';100640;;;1;55
30343;BME280;17145;49.902;8.680;'2023-01-26 05:33:09';100640;;;0;55
30343;BME280;17145;49.902;8.680;'2023-01-26 05:35:36';100640;;;0;55
30343;BME280;17145;49.902;8.680;'2023-01-26 05:38:04';100640;;;0;55
30343;BME280;17145;49.902;8.680;'2023-01-26 05:40:32';100630;;;0;55
30343;BME280;17145;49.902;8.680;'2023-01-26 05:43:00';100630;;;0;55
30343;BME280;17145;49.902;8.680;'2023-01-26 05:45:28';100630;;;1;55
30343;BME280;17145;49.902;8.680;'2023-01-26 05:47:56';100630;;;0;55
30343;BME280;17145;49.902;8.680;'2023-01-26 05:50:24';100630;;;0;55
30343;BME280;17145;49.902;8.680;'2023-01-26 05:52:51';100630;;;1;55
30343;BME280;17145;49.902;8.680;'2023-01-26 05:55:18';100620;;;0;55
30343;BME280;17145;49.902;8.680;'2023-01-26 05:57:46';100620;;;1;55
30343;BME280;17145;49.902;8.680;'2023-01-26 06:00:15';100620;;;1;55
30343;BME280;17145;49.902;8.680;'2023-01-26 06:02:44';100620;;;0;55
30343;BME280;17145;49.902;8.680;'2023-01-26 06:05:12';100610;;;0;55
30343;BME280;17145;49.902;8.680;'2023-01-26 06:07:40';100610;;;1;55
30343;BME280;17145;49.902;8.680;'2023-01-26 06:10:08';100610;;;0;56
30343;BME280;17145;49.902;8.680;'2023-01-26 06:12:36';100610;;;0;55
30343;BME280;17145;49.902;8.680;'2023-01-26 06:15:04';100610;;;0;55
30343;BME280;17145;49.902;8.680;'2023-01-26 06:17:31';100610;;;0;55
30343;BME280;17145;49.902;8.680;'2023-01-26 06:19:58';100610;;;0;56
30343;BME280;17145;49.902;8.680;'2023-01-26 06:22:26';100620;;;0;56
30343;BME280;17145;49.902;8.680;'2023-01-26 06:24:54';100620;;;0;56
30343;BME280;17145;49.902;8.680;'2023-01-26 06:27:22';100620;;;0;56
30343;BME280;17145;49.902;8.680;'2023-01-26 06:29:50';100620;;;0;55
30343;BME280;17145;49.902;8.680;'2023-01-26 06:32:18';100620;;;0;56
30343;BME280;17145;49.902;8.680;'2023-01-26 06:34:46';100620;;;0;56
30343;BME280;17145;49.902;8.680;'2023-01-26 06:37:13';100620;;;0;55
30343;BME280;17145;49.902;8.680;'2023-01-26 06:39:41';100620;;;0;56
30343;BME280;17145;49.902;8.680;'2023-01-26 06:42:10';100620;;;0;55
30343;BME280;17145;49.902;8.680;'2023-01-26 06:44:37';100620;;;0;55
30343;BME280;17145;49.902;8.680;'2023-01-26 06:47:05';100620;;;0;55
30343;BME280;17145;49.902;8.680;'2023-01-26 06:49:34';100620;;;0;55
30343;BME280;17145;49.902;8.680;'2023-01-26 06:52:01';100620;;;0;55
30343;BME280;17145;49.902;8.680;'2023-01-26 06:54:29';100620;;;0;55
30343;BME280;17145;49.902;8.680;'2023-01-26 06:56:57';100630;;;0;55
30343;BME280;17145;49.902;8.680;'2023-01-26 06:59:24';100630;;;0;55
30343;BME280;17145;49.902;8.680;'2023-01-26 07:01:51';100640;;;0;55
30343;BME280;17145;49.902;8.680;'2023-01-26 07:04:19';100640;;;0;55
30343;BME280;17145;49.902;8.680;'2023-01-26 07:06:47';100640;;;0;56
30343;BME280;17145;49.902;8.680;'2023-01-26 07:09:15';100650;;;0;55
30343;BME280;17145;49.902;8.680;'2023-01-26 07:11:43';100660;;;0;56
30343;BME280;17145;49.902;8.680;'2023-01-26 07:14:11';100660;;;0;56
30343;BME280;17145;49.902;8.680;'2023-01-26 07:16:38';100660;;;0;56
30343;BME280;17145;49.902;8.680;'2023-01-26 07:19:08';100660;;;0;55
30343;BME280;17145;49.902;8.680;'2023-01-26 07:21:35';100660;;;0;55
30343;BME280;17145;49.902;8.680;'2023-01-26 07:24:04';100660;;;0;55
30343;BME280;17145;49.902;8.680;'2023-01-26 07:26:31';100660;;;0;55
30343;BME280;17145;49.902;8.680;'2023-01-26 07:28:59';100660;;;0;55
30343;BME280;17145;49.902;8.680;'2023-01-26 07:31:27';100660;;;1;56
30343;BME280;17145;49.902;8.680;'2023-01-26 07:33:55';100660;;;0;55
30343;BME280;17145;49.902;8.680;'2023-01-26 07:36:22';100660;;;0;55
30343;BME280;17145;49.902;8.680;'2023-01-26 07:38:50';100660;;;0;55
30343;BME280;17145;49.902;8.680;'2023-01-26 07:41:18';100660;;;0;55
30343;BME280;17145;49.902;8.680;'2023-01-26 07:43:47';100660;;;0;55
30343;BME280;17145;49.902;8.680;'2023-01-26 07:46:16';100660;;;0;55
30343;BME280;17145;49.902;8.680;'2023-01-26 07:51:28';100660;;;1;55
30343;BME280;17145;49.902;8.680;'2023-01-26 07:53:57';100660;;;0;54
30343;BME280;17145;49.902;8.680;'2023-01-26 07:56:24';100660;;;0;54
30343;BME280;17145;49.902;8.680;'2023-01-26 07:58:52';100660;;;0;54
30343;BME280;17145;49.902;8.680;'2023-01-26 08:01:21';100650;;;0;55
30343;BME280;17145;49.902;8.680;'2023-01-26 08:03:49';100660;;;0;55
30343;BME280;17145;49.902;8.680;'2023-01-26 08:06:17';100660;;;0;55
30343;BME280;17145;49.902;8.680;'2023-01-26 08:08:45';100660;;;1;55
30343;BME280;17145;49.902;8.680;'2023-01-26 08:11:13';100660;;;1;54
30343;BME280;17145;49.902;8.680;'2023-01-26 08:13:41';100660;;;1;54
30343;BME280;17145;49.902;8.680;'2023-01-26 08:16:11';100660;;;0;54
30343;BME280;17145;49.902;8.680;'2023-01-26 08:18:38';100670;;;0;54
30343;BME280;17145;49.902;8.680;'2023-01-26 08:21:09';100670;;;0;55
30343;BME280;17145;49.902;8.680;'2023-01-26 08:23:36';100670;;;1;54
30343;BME280;17145;49.902;8.680;'2023-01-26 08:26:04';100670;;;1;54
30343;BME280;17145;49.902;8.680;'2023-01-26 08:28:32';100680;;;1;54
30343;BME280;17145;49.902;8.680;'2023-01-26 08:31:00';100680;;;0;54
30343;BME280;17145;49.902;8.680;'2023-01-26 08:33:29';100680;;;1;54
30343;BME280;17145;49.902;8.680;'2023-01-26 08:35:58';100680;;;1;54
30343;BME280;17145;49.902;8.680;'2023-01-26 08:38:26';100680;;;1;54
30343;BME280;17145;49.902;8.680;'2023-01-26 08:40:54';100680;;;1;54
30343;BME280;17145;49.902;8.680;'2023-01-26 08:43:22';100680;;;1;53
30343;BME280;17145;49.902;8.680;'2023-01-26 08:45:52';100680;;;1;53
30343;BME280;17145;49.902;8.680;'2023-01-26 08:48:22';100680;;;1;53
30343;BME280;17145;49.902;8.680;'2023-01-26 08:50:50';100680;;;1;53
30343;BME280;17145;49.902;8.680;'2023-01-26 08:53:18';100670;;;1;54
30343;BME280;17145;49.902;8.680;'2023-01-26 08:55:46';100670;;;1;54
30343;BME280;17145;49.902;8.680;'2023-01-26 08:58:13';100670;;;0;54
30343;BME280;17145;49.902;8.680;'2023-01-26 09:00:40';100670;;;1;53
30343;BME280;17145;49.902;8.680;'2023-01-26 09:03:08';100670;;;1;53
30343;BME280;17145;49.902;8.680;'2023-01-26 09:05:35';100680;;;1;53
30343;BME280;17145;49.902;8.680;'2023-01-26 09:08:04';100680;;;1;53
30343;BME280;17145;49.902;8.680;'2023-01-26 09:10:31';100680;;;0;53
30343;BME280;17145;49.902;8.680;'2023-01-26 09:13:00';100680;;;1;53
30343;BME280;17145;49.902;8.680;'2023-01-26 09:15:29';100680;;;1;53
30343;BME280;17145;49.902;8.680;'2023-01-26 09:17:57';100680;;;1;53
30343;BME280;17145;49.902;8.680;'2023-01-26 09:20:25';100680;;;0;53
30343;BME280;17145;49.902;8.680;'2023-01-26 09:22:53';100690;;;1;53
30343;BME280;17145;49.902;8.680;'2023-01-26 09:25:20';100690;;;1;53
30343;BME280;17145;49.902;8.680;'2023-01-26 09:27:47';100700;;;1;52
30343;BME280;17145;49.902;8.680;'2023-01-26 09:30:16';100690;;;0;52
30343;BME280;17145;49.902;8.680;'2023-01-26 09:32:44';100690;;;0;53
30343;BME280;17145;49.902;8.680;'2023-01-26 09:35:12';100690;;;0;52
30343;BME280;17145;49.902;8.680;'2023-01-26 09:37:39';100690;;;0;52
30343;BME280;17145;49.902;8.680;'2023-01-26 09:40:08';100690;;;0;52
30343;BME280;17145;49.902;8.680;'2023-01-26 09:42:36';100700;;;0;52
30343;BME280;17145;49.902;8.680;'2023-01-26 09:45:04';100700;;;0;52
30343;BME280;17145;49.902;8.680;'2023-01-26 09:47:31';100710;;;0;53
30343;BME280;17145;49.902;8.680;'2023-01-26 09:49:58';100710;;;0;53
30343;BME280;17145;49.902;8.680;'2023-01-26 09:52:26';100710;;;0;53
30343;BME280;17145;49.902;8.680;'2023-01-26 09:54:55';100710;;;0;53
30343;BME280;17145;49.902;8.680;'2023-01-26 09:57:22';100710;;;0;53
30343;BME280;17145;49.902;8.680;'2023-01-26 09:59:50';100710;;;1;52
30343;BME280;17145;49.902;8.680;'2023-01-26 10:02:19';100710;;;1;52
30343;BME280;17145;49.902;8.680;'2023-01-26 10:04:46';100710;;;1;52
30343;BME280;17145;49.902;8.680;'2023-01-26 10:07:13';100710;;;1;52
30343;BME280;17145;49.902;8.680;'2023-01-26 10:09:41';100710;;;1;52
30343;BME280;17145;49.902;8.680;'2023-01-26 10:12:08';100710;;;1;53
30343;BME280;17145;49.902;8.680;'2023-01-26 10:14:36';100720;;;1;52
30343;BME280;17145;49.902;8.680;'2023-01-26 10:17:03';100720;;;1;52
30343;BME280;17145;49.902;8.680;'2023-01-26 10:19:31';100720;;;1;52
30343;BME280;17145;49.902;8.680;'2023-01-26 10:21:59';100710;;;1;51
30343;BME280;17145;49.902;8.680;'2023-01-26 10:24:27';100720;;;0;52
30343;BME280;17145;49.902;8.680;'2023-01-26 10:26:55';100720;;;1;51
30343;BME280;17145;49.902;8.680;'2023-01-26 10:29:22';100720;;;0;51
30343;BME280;17145;49.902;8.680;'2023-01-26 10:31:50';100720;;;0;51
30343;BME280;17145;49.902;8.680;'2023-01-26 10:34:17';100710;;;0;51
30343;BME280;17145;49.902;8.680;'2023-01-26 10:36:45';100710;;;0;51
30343;BME280;17145;49.902;8.680;'2023-01-26 10:39:12';100710;;;0;51
30343;BME280;17145;49.902;8.680;'2023-01-26 10:41:55';100720;;;0;51
30343;BME280;17145;49.902;8.680;'2023-01-26 10:44:24';100720;;;0;51
30343;BME280;17145;49.902;8.680;'2023-01-26 10:47:01';100720;;;0;51
30343;BME280;17145;49.902;8.680;'2023-01-26 10:49:41';100730;;;0;51
30343;BME280;17145;49.902;8.680;'2023-01-26 10:52:15';100720;;;0;51
30343;BME280;17145;49.902;8.680;'2023-01-26 10:54:47';100720;;;0;51
30343;BME280;17145;49.902;8.680;'2023-01-26 10:57:16';100720;;;0;51
30343;BME280;17145;49.902;8.680;'2023-01-26 10:59:51';100720;;;0;51
30343;BME280;17145;49.902;8.680;'2023-01-26 11:02:33';100720;;;0;51
30343;BME280;17145;49.902;8.680;'2023-01-26 11:05:08';100720;;;0;50
30343;BME280;17145;49.902;8.680;'2023-01-26 11:07:36';100720;;;0;50
30343;BME280;17145;49.902;8.680;'2023-01-26 11:10:04';100710;;;0;50
30343;BME280;17145;49.902;8.680;'2023-01-26 11:12:35';100710;;;0;50
30343;BME280;17145;49.902;8.680;'2023-01-26 11:15:08';100720;;;0;50
30343;BME280;17145;49.902;8.680;'2023-01-26 11:17:40';100720;;;0;50
30343;BME280;17145;49.902;8.680;'2023-01-26 11:20:21';100710;;;0;49
30343;BME280;17145;49.902;8.680;'2023-01-26 11:22:53';100710;;;0;49
30343;BME280;17145;49.902;8.680;'2023-01-26 11:25:28';100710;;;0;50
30343;BME280;17145;49.902;8.680;'2023-01-26 11:27:56';100720;;;0;50
30343;BME280;17145;49.902;8.680;'2023-01-26 11:30:23';100710;;;0;50
30343;BME280;17145;49.902;8.680;'2023-01-26 11:32:52';100710;;;0;50
30343;BME280;17145;49.902;8.680;'2023-01-26 11:35:22';100710;;;0;50
30343;BME280;17145;49.902;8.680;'2023-01-26 11:37:51';100710;;;0;50
30343;BME280;17145;49.902;8.680;'2023-01-26 11:40:19';100710;;;0;49
30343;BME280;17145;49.902;8.680;'2023-01-26 11:42:54';100700;;;0;49
30343;BME280;17145;49.902;8.680;'2023-01-26 11:45:26';100700;;;0;49
30343;BME280;17145;49.902;8.680;'2023-01-26 11:48:09';100690;;;0;49
30343;BME280;17145;49.902;8.680;'2023-01-26 11:50:37';100700;;;0;50
30343;BME280;17145;49.902;8.680;'2023-01-26 11:53:05';100690;;;0;50
30343;BME280;17145;49.902;8.680;'2023-01-26 11:55:33';100680;;;0;50
30343;BME280;17145;49.902;8.680;'2023-01-26 11:58:00';100680;;;0;49
30343;BME280;17145;49.902;8.680;'2023-01-26 12:00:30';100680;;;0;49
30343;BME280;17145;49.902;8.680;'2023-01-26 12:03:04';100680;;;0;49
30343;BME280;17145;49.902;8.680;'2023-01-26 12:05:31';100680;;;0;48
30343;BME280;17145;49.902;8.680;'2023-01-26 12:07:59';100680;;;1;49
30343;BME280;17145;49.902;8.680;'2023-01-26 12:10:30';100670;;;1;48
30343;BME280;17145;49.902;8.680;'2023-01-26 12:13:14';100660;;;1;48
30343;BME280;17145;49.902;8.680;'2023-01-26 12:15:43';100660;;;1;48
30343;BME280;17145;49.902;8.680;'2023-01-26 12:18:21';100660;;;1;48
30343;BME280;17145;49.902;8.680;'2023-01-26 12:20:57';100660;;;1;47
30343;BME280;17145;49.902;8.680;'2023-01-26 12:23:37';100660;;;0;47
30343;BME280;17145;49.902;8.680;'2023-01-26 12:26:25';100660;;;0;48
30343;BME280;17145;49.902;8.680;'2023-01-26 12:29:06';100650;;;0;48
30343;BME280;17145;49.902;8.680;'2023-01-26 12:31:47';100650;;;1;48
30343;BME280;17145;49.902;8.680;'2023-01-26 12:34:28';100650;;;0;48
30343;BME280;17145;49.902;8.680;'2023-01-26 12:37:08';100640;;;0;48
30343;BME280;17145;49.902;8.680;'2023-01-26 12:39:44';100640;;;1;47
30343;BME280;17145;49.902;8.680;'2023-01-26 12:42:22';100640;;;1;48
30343;BME280;17145;49.902;8.680;'2023-01-26 12:45:06';100630;;;0;47
30343;BME280;17145;49.902;8.680;'2023-01-26 12:47:46';100640;;;0;47
30343;BME280;17145;49.902;8.680;'2023-01-26 12:50:26';100630;;;0;47
30343;BME280;17145;49.902;8.680;'2023-01-26 12:53:07';100630;;;0;47
30343;BME280;17145;49.902;8.680;'2023-01-26 12:55:49';100630;;;0;47
30343;BME280;17145;49.902;8.680;'2023-01-26 12:58:28';100630;;;0;47
30343;BME280;17145;49.902;8.680;'2023-01-26 13:00:59';100630;;;0;48
30343;BME280;17145;49.902;8.680;'2023-01-26 13:03:34';100620;;;1;48
30343;BME280;17145;49.902;8.680;'2023-01-26 13:06:05';100620;;;0;47
30343;BME280;17145;49.902;8.680;'2023-01-26 13:08:40';100620;;;0;47
30343;BME280;17145;49.902;8.680;'2023-01-26 13:11:12';100620;;;0;47
30343;BME280;17145;49.902;8.680;'2023-01-26 13:13:45';100610;;;0;47
30343;BME280;17145;49.902;8.680;'2023-01-26 13:16:17';100610;;;0;47
30343;BME280;17145;49.902;8.680;'2023-01-26 13:18:52';100600;;;0;47
30343;BME280;17145;49.902;8.680;'2023-01-26 13:21:20';100600;;;0;48
30343;BME280;17145;49.902;8.680;'2023-01-26 13:23:54';100600;;;0;48
30343;BME280;17145;49.902;8.680;'2023-01-26 13:26:24';100600;;;0;47
30343;BME280;17145;49.902;8.680;'2023-01-26 13:29:00';100590;;;0;48
30343;BME280;17145;49.902;8.680;'2023-01-26 13:31:34';100590;;;0;48
30343;BME280;17145;49.902;8.680;'2023-01-26 13:34:02';100590;;;0;48
30343;BME280;17145;49.902;8.680;'2023-01-26 13:36:45';100580;;;0;48
30343;BME280;17145;49.902;8.680;'2023-01-26 13:39:20';100580;;;0;48
30343;BME280;17145;49.902;8.680;'2023-01-26 13:42:01';100580;;;0;48
30343;BME280;17145;49.902;8.680;'2023-01-26 13:44:37';100590;;;0;48
30343;BME280;17145;49.902;8.680;'2023-01-26 13:47:13';100580;;;0;48
30343;BME280;17145;49.902;8.680;'2023-01-26 13:49:51';100580;;;0;48
30343;BME280;17145;49.902;8.680;'2023-01-26 13:52:25';100570;;;0;48
30343;BME280;17145;49.902;8.680;'2023-01-26 13:55:00';100570;;;0;48
30343;BME280;17145;49.902;8.680;'2023-01-26 13:57:37';100570;;;0;48
30343;BME280;17145;49.902;8.680;'2023-01-26 14:00:17';100570;;;0;48
30343;BME280;17145;49.902;8.680;'2023-01-26 14:02:47';100570;;;0;48
30343;BME280;17145;49.902;8.680;'2023-01-26 14:05:25';100570;;;0;47
30343;BME280;17145;49.902;8.680;'2023-01-26 14:07:52';100580;;;0;47
30343;BME280;17145;49.902;8.680;'2023-01-26 14:10:24';100580;;;0;47
30343;BME280;17145;49.902;8.680;'2023-01-26 14:12:55';100580;;;0;47
30343;BME280;17145;49.902;8.680;'2023-01-26 14:15:25';100580;;;0;47
30343;BME280;17145;49.902;8.680;'2023-01-26 14:25:59';100580;;;0;47
30343;BME280;17145;49.902;8.680;'2023-01-26 14:28:28';100570;;;0;47
30343;BME280;17145;49.902;8.680;'2023-01-26 14:31:02';100570;;;0;47
30343;BME280;17145;49.902;8.680;'2023-01-26 14:33:31';100570;;;0;47
30343;BME280;17145;49.902;8.680;'2023-01-26 14:36:03';100570;;;0;46
30343;BME280;17145;49.902;8.680;'2023-01-26 14:38:37';100570;;;0;47
30343;BME280;17145;49.902;8.680;'2023-01-26 14:41:08';100570;;;0;46
30343;BME280;17145;49.902;8.680;'2023-01-26 14:43:41';100580;;;0;46
30343;BME280;17145;49.902;8.680;'2023-01-26 14:46:17';100570;;;0;46
30343;BME280;17145;49.902;8.680;'2023-01-26 14:48:46';100570;;;0;47
30343;BME280;17145;49.902;8.680;'2023-01-26 14:51:17';100570;;;0;47
30343;BME280;17145;49.902;8.680;'2023-01-26 14:53:56';100570;;;0;47
30343;BME280;17145;49.902;8.680;'2023-01-26 14:56:27';100570;;;0;47
30343;BME280;17145;49.902;8.680;'2023-01-26 14:59:04';100570;;;0;47
30343;BME280;17145;49.902;8.680;'2023-01-26 15:04:03';100570;;;0;48
30343;BME280;17145;49.902;8.680;'2023-01-26 15:06:32';100570;;;0;47
30343;BME280;17145;49.902;8.680;'2023-01-26 15:08:59';100580;;;1;46
30343;BME280;17145;49.902;8.680;'2023-01-26 15:11:29';100580;;;0;47
30343;BME280;17145;49.902;8.680;'2023-01-26 15:14:00';100580;;;0;47
30343;BME280;17145;49.902;8.680;'2023-01-26 15:16:30';100580;;;0;47
30343;BME280;17145;49.902;8.680;'2023-01-26 15:21:43';100580;;;0;47
30343;BME280;17145;49.902;8.680;'2023-01-26 15:24:10';100580;;;0;46
30343;BME280;17145;49.902;8.680;'2023-01-26 15:26:40';100580;;;0;47
30343;BME280;17145;49.902;8.680;'2023-01-26 15:29:11';100590;;;0;47
30343;BME280;17145;49.902;8.680;'2023-01-26 15:31:39';100590;;;0;47
30343;BME280;17145;49.902;8.680;'2023-01-26 15:34:09';100590;;;0;47
30343;BME280;17145;49.902;8.680;'2023-01-26 15:36:37';100600;;;0;47
30343;BME280;17145;49.902;8.680;'2023-01-26 15:39:14';100600;;;0;47
30343;BME280;17145;49.902;8.680;'2023-01-26 15:41:43';100600;;;0;47
30343;BME280;17145;49.902;8.680;'2023-01-26 15:44:11';100600;;;1;47
30343;BME280;17145;49.902;8.680;'2023-01-26 15:46:51';100600;;;0;47
30343;BME280;17145;49.902;8.680;'2023-01-26 15:49:23';100600;;;0;47